Time;durP1;ratioP1;P1;durP2;ratioP2;P2;SDS_P1;SDS_P2;PMS_P1;PMS_P2;Temp;Humidity;BMP_temperature;BMP_pressure;BME280_temperature;BME280_humidity;BME280_pressure;Samples;Min_cycle;Max_cycle;Signal;HPM_P1;HPM_P2
2022/03/24 00:02:10;;;;;;;35.90;23.17;;;5.70;99.90;;;;;;5015640;28;20207;-77
2022/03/24 00:04:36;;;;;;;37.63;23.70;;;5.70;99.90;;;;;;5015420;28;20180;-78
2022/03/24 00:07:02;;;;;;;40.40;23.00;;;5.60;99.90;;;;;;5016672;28;20218;-78
2022/03/24 00:09:27;;;;;;;37.40;23.57;;;5.60;99.90;;;;;;5017725;28;20254;-77
2022/03/24 00:11:55;;;;;;;37.50;23.33;;;5.60;99.90;;;;;;5016500;28;20188;-78
2022/03/24 00:14:21;;;;;;;41.57;23.53;;;5.60;99.90;;;;;;5020278;28;20196;-78
2022/03/24 00:16:47;;;;;;;37.33;23.10;;;5.50;99.90;;;;;;5020515;28;20718;-78
2022/03/24 00:19:16;;;;;;;39.03;23.57;;;5.50;99.90;;;;;;5017929;28;20214;-78
2022/03/24 00:21:43;;;;;;;38.50;22.93;;;5.40;99.90;;;;;;5014829;28;20208;-77
2022/03/24 00:24:08;;;;;;;38.83;23.60;;;5.50;99.90;;;;;;5016348;28;20187;-78
2022/03/24 00:26:34;;;;;;;38.87;22.20;;;5.50;99.90;;;;;;5016620;28;20175;-78
2022/03/24 00:29:02;;;;;;;38.13;21.37;;;5.40;99.90;;;;;;5017606;28;20250;-78
2022/03/24 00:31:28;;;;;;;34.00;21.67;;;5.50;99.90;;;;;;5016513;28;20215;-79
2022/03/24 00:33:55;;;;;;;38.23;22.53;;;5.50;99.90;;;;;;5015597;28;20195;-78
2022/03/24 00:36:21;;;;;;;34.77;22.33;;;5.60;99.90;;;;;;4999589;28;20191;-79
2022/03/24 00:38:52;;;;;;;35.47;23.03;;;5.60;99.90;;;;;;5015799;28;20207;-79
2022/03/24 00:41:17;;;;;;;39.07;23.73;;;5.60;99.90;;;;;;5017892;28;20200;-79
2022/03/24 00:43:44;;;;;;;37.03;23.80;;;5.50;99.90;;;;;;5017503;28;20653;-80
2022/03/24 00:46:10;;;;;;;36.77;24.73;;;5.50;99.90;;;;;;5016278;28;20270;-79
2022/03/24 00:48:36;;;;;;;45.23;24.63;;;5.50;99.90;;;;;;5017562;28;20227;-79
2022/03/24 00:51:01;;;;;;;38.83;23.93;;;5.50;99.90;;;;;;5016458;28;20183;-80
2022/03/24 00:53:29;;;;;;;42.57;23.27;;;5.40;99.90;;;;;;5017890;28;20263;-79
2022/03/24 00:55:56;;;;;;;37.63;22.60;;;5.30;99.90;;;;;;5000516;28;20176;-79
2022/03/24 00:58:22;;;;;;;41.37;23.83;;;5.10;99.90;;;;;;5016566;28;20199;-79
2022/03/24 01:00:48;;;;;;;38.20;23.83;;;5.10;99.90;;;;;;5016646;28;20183;-79
2022/03/24 01:03:13;;;;;;;41.73;25.70;;;5.00;99.90;;;;;;5016020;28;20222;-79
2022/03/24 01:05:39;;;;;;;48.63;24.63;;;5.00;99.90;;;;;;5016539;28;20313;-79
2022/03/24 01:08:08;;;;;;;41.80;24.57;;;4.90;99.90;;;;;;5016612;28;20226;-79
2022/03/24 01:10:35;;;;;;;41.27;24.90;;;4.90;99.90;;;;;;5016523;28;20199;-78
2022/03/24 01:13:02;;;;;;;43.20;23.60;;;4.80;99.90;;;;;;5014862;28;20203;-78
2022/03/24 01:15:30;;;;;;;33.87;22.40;;;4.70;99.90;;;;;;5015092;28;20179;-78
2022/03/24 01:17:59;;;;;;;37.10;23.83;;;4.60;99.90;;;;;;5014920;28;20204;-78
2022/03/24 01:20:26;;;;;;;39.60;22.87;;;4.40;99.90;;;;;;5017298;28;20180;-80
2022/03/24 01:22:52;;;;;;;38.73;22.10;;;4.40;99.90;;;;;;5018750;28;20211;-81
2022/03/24 01:25:17;;;;;;;37.90;23.63;;;4.30;99.90;;;;;;5018738;28;20184;-81
2022/03/24 01:27:43;;;;;;;37.70;24.20;;;4.20;99.90;;;;;;5019760;28;20561;-81
2022/03/24 01:30:09;;;;;;;39.43;23.53;;;4.20;99.90;;;;;;5019403;28;20191;-81
2022/03/24 01:32:36;;;;;;;41.33;24.07;;;4.30;99.90;;;;;;5018741;28;20637;-81
2022/03/24 01:35:07;;;;;;;37.40;24.17;;;4.40;99.90;;;;;;5018523;28;20211;-80
2022/03/24 01:37:35;;;;;;;42.43;25.27;;;4.50;99.90;;;;;;5019595;28;20278;-81
2022/03/24 01:40:00;;;;;;;39.73;24.60;;;4.60;99.90;;;;;;5018345;28;20184;-81
2022/03/24 01:42:26;;;;;;;38.90;24.17;;;4.40;99.90;;;;;;5019309;28;20200;-81
2022/03/24 01:44:55;;;;;;;39.57;23.80;;;4.20;99.90;;;;;;5018425;28;20187;-81
2022/03/24 01:47:22;;;;;;;37.30;23.60;;;4.00;99.90;;;;;;5018630;28;20199;-81
2022/03/24 01:49:48;;;;;;;41.00;23.27;;;3.90;99.90;;;;;;5020906;28;20168;-81
2022/03/24 01:52:15;;;;;;;40.67;23.57;;;3.90;99.90;;;;;;5017188;28;20196;-80
2022/03/24 01:54:44;;;;;;;41.97;23.80;;;3.80;99.90;;;;;;5016675;28;20180;-79
2022/03/24 01:57:12;;;;;;;37.33;22.53;;;3.90;99.90;;;;;;5014553;28;20207;-79
2022/03/24 01:59:39;;;;;;;40.40;23.03;;;4.00;99.90;;;;;;5014323;28;20184;-79
2022/03/24 02:02:05;;;;;;;41.23;23.83;;;4.10;99.90;;;;;;4998159;28;20220;-80
2022/03/24 02:04:35;;;;;;;43.80;25.07;;;4.00;99.90;;;;;;5014938;28;20611;-80
2022/03/24 02:07:03;;;;;;;42.40;24.53;;;3.90;99.90;;;;;;5013906;28;20211;-79
2022/03/24 02:09:29;;;;;;;40.10;23.77;;;4.00;99.90;;;;;;4999905;28;20263;-80
2022/03/24 02:11:55;;;;;;;38.47;23.70;;;4.10;99.90;;;;;;5019180;28;20176;-80
2022/03/24 02:14:21;;;;;;;36.13;23.30;;;4.00;99.90;;;;;;5022835;28;20550;-81
2022/03/24 02:16:48;;;;;;;37.17;23.87;;;3.90;99.90;;;;;;5021909;28;20211;-81
2022/03/24 02:19:16;;;;;;;38.50;24.47;;;3.90;99.90;;;;;;5023671;28;20184;-81
2022/03/24 02:21:43;;;;;;;45.03;25.70;;;3.90;99.90;;;;;;5022026;28;20208;-80
2022/03/24 02:24:10;;;;;;;40.93;25.37;;;4.00;99.90;;;;;;5018261;28;20180;-79
2022/03/24 02:26:37;;;;;;;40.77;24.33;;;4.00;99.90;;;;;;5017544;28;20183;-79
2022/03/24 02:29:06;;;;;;;43.33;25.10;;;3.90;99.90;;;;;;5017878;28;20662;-78
2022/03/24 02:31:43;;;;;;;41.53;25.27;;;3.80;99.90;;;;;;5017733;28;20184;-79
2022/03/24 02:36:56;;;;;;;44.30;25.57;;;3.80;99.90;;;;;;5019735;28;20179;-78
2022/03/24 02:39:22;;;;;;;46.67;24.77;;;3.70;99.90;;;;;;5018228;28;20242;-78
2022/03/24 02:41:52;;;;;;;46.70;24.57;;;3.70;99.90;;;;;;5023962;28;20203;-78
2022/03/24 02:44:19;;;;;;;44.17;26.17;;;3.80;99.90;;;;;;5021207;28;20175;-81
2022/03/24 02:46:48;;;;;;;41.83;24.53;;;3.80;99.90;;;;;;5017513;28;20241;-79
2022/03/24 02:49:19;;;;;;;37.00;23.57;;;3.80;99.90;;;;;;5016568;28;20180;-78
2022/03/24 02:51:46;;;;;;;37.77;24.33;;;3.50;99.90;;;;;;5017271;28;20183;-79
2022/03/24 02:54:13;;;;;;;39.53;24.53;;;3.40;99.90;;;;;;5018724;28;20183;-79
2022/03/24 02:56:42;;;;;;;43.80;25.57;;;3.40;99.90;;;;;;5017491;28;20184;-79
2022/03/24 02:59:08;;;;;;;40.87;25.20;;;3.50;99.90;;;;;;5017455;28;20228;-79
2022/03/24 03:01:34;;;;;;;42.07;24.47;;;3.60;99.90;;;;;;5018881;28;20226;-80
2022/03/24 03:04:00;;;;;;;38.80;25.33;;;3.60;99.90;;;;;;5020694;28;20179;-80
2022/03/24 03:06:26;;;;;;;42.20;25.90;;;3.50;99.90;;;;;;5021895;28;20287;-79
2022/03/24 03:08:52;;;;;;;45.63;24.53;;;3.50;99.90;;;;;;5020987;28;20377;-80
2022/03/24 03:11:22;;;;;;;44.17;26.30;;;3.50;99.90;;;;;;5020656;28;20298;-80
2022/03/24 03:13:49;;;;;;;47.47;26.27;;;3.50;99.90;;;;;;5020835;28;20184;-80
2022/03/24 03:16:15;;;;;;;44.17;26.17;;;3.50;99.90;;;;;;5019682;28;20215;-80
2022/03/24 03:18:44;;;;;;;43.90;25.03;;;3.30;99.90;;;;;;5018580;28;20203;-80
2022/03/24 03:21:11;;;;;;;41.07;25.50;;;3.20;99.90;;;;;;5020544;28;20654;-78
2022/03/24 03:23:38;;;;;;;39.80;25.67;;;3.20;99.90;;;;;;5019954;28;20278;-79
2022/03/24 03:26:07;;;;;;;41.50;25.43;;;3.10;99.90;;;;;;5020470;28;20172;-80
2022/03/24 03:28:33;;;;;;;43.17;25.77;;;3.00;99.90;;;;;;5019115;28;20233;-80
2022/03/24 03:30:58;;;;;;;45.57;26.27;;;3.10;99.90;;;;;;5019089;28;20188;-80
2022/03/24 03:33:24;;;;;;;44.30;24.43;;;3.20;99.90;;;;;;5018997;28;20226;-80
2022/03/24 03:35:51;;;;;;;39.63;25.33;;;3.20;99.90;;;;;;5020874;28;20179;-80
2022/03/24 03:38:18;;;;;;;42.83;26.47;;;3.10;99.90;;;;;;5020685;28;20282;-81
2022/03/24 03:40:44;;;;;;;39.33;24.33;;;3.00;99.90;;;;;;5019108;28;20188;-80
2022/03/24 03:43:11;;;;;;;37.30;24.63;;;2.80;99.90;;;;;;5019022;28;20219;-80
2022/03/24 03:45:38;;;;;;;46.07;26.20;;;2.70;99.90;;;;;;5020462;28;20219;-80
2022/03/24 03:48:05;;;;;;;38.80;24.20;;;2.60;99.90;;;;;;5019027;28;20674;-81
2022/03/24 03:50:31;;;;;;;38.40;25.27;;;2.40;99.90;;;;;;5018337;28;20210;-79
2022/03/24 03:52:57;;;;;;;35.43;23.77;;;2.40;99.90;;;;;;5021207;28;20635;-79
2022/03/24 03:55:23;;;;;;;40.90;25.30;;;2.40;99.90;;;;;;5030559;28;20184;-78
2022/03/24 03:57:49;;;;;;;38.13;25.27;;;2.40;99.90;;;;;;5038015;28;20226;-79
2022/03/24 04:03:03;;;;;;;39.30;23.57;;;2.30;99.90;;;;;;5019762;28;20257;-78
2022/03/24 04:05:30;;;;;;;37.83;22.80;;;2.20;99.90;;;;;;5018617;28;20175;-79
2022/03/24 04:07:56;;;;;;;38.03;24.07;;;2.20;99.90;;;;;;5016274;28;20203;-79
2022/03/24 04:10:22;;;;;;;40.17;25.37;;;2.30;99.90;;;;;;5016764;28;20203;-79
2022/03/24 04:12:50;;;;;;;37.67;24.10;;;2.50;99.90;;;;;;5018414;28;20214;-78
2022/03/24 04:15:17;;;;;;;43.57;24.33;;;2.50;99.90;;;;;;5017050;28;20258;-78
2022/03/24 04:17:42;;;;;;;42.83;24.57;;;2.70;99.90;;;;;;5016142;28;20691;-78
2022/03/24 04:20:10;;;;;;;41.50;24.83;;;2.80;99.90;;;;;;5015895;28;20164;-79
2022/03/24 04:22:36;;;;;;;44.70;26.03;;;2.80;99.90;;;;;;5015483;28;20204;-79
2022/03/24 04:25:05;;;;;;;43.37;25.20;;;2.80;99.90;;;;;;5015543;28;20174;-79
2022/03/24 04:27:31;;;;;;;44.67;25.33;;;2.90;99.90;;;;;;5013975;28;20204;-78
2022/03/24 04:29:56;;;;;;;45.47;25.73;;;2.90;99.90;;;;;;5015141;28;20258;-78
2022/03/24 04:32:22;;;;;;;46.67;27.20;;;2.80;99.90;;;;;;5014765;28;20223;-78
2022/03/24 04:34:48;;;;;;;42.63;25.73;;;2.60;99.90;;;;;;5013627;28;20191;-78
2022/03/24 04:37:15;;;;;;;44.90;25.17;;;2.50;99.90;;;;;;5015020;28;20314;-78
2022/03/24 04:39:41;;;;;;;38.73;24.07;;;2.40;99.90;;;;;;5014998;28;20626;-78
2022/03/24 04:42:08;;;;;;;42.70;25.17;;;2.50;99.90;;;;;;5013569;28;20740;-79
2022/03/24 04:44:34;;;;;;;40.10;24.97;;;2.40;99.90;;;;;;5015059;28;20176;-79
2022/03/24 04:47:00;;;;;;;39.07;23.47;;;2.20;99.90;;;;;;5014045;28;20321;-79
2022/03/24 04:49:26;;;;;;;44.23;25.80;;;2.30;99.90;;;;;;5013500;28;20180;-78
2022/03/24 04:51:53;;;;;;;47.87;26.63;;;2.40;99.90;;;;;;5014969;28;20176;-79
2022/03/24 04:54:19;;;;;;;52.57;29.00;;;2.50;99.90;;;;;;5013903;28;20262;-79
2022/03/24 04:56:45;;;;;;;44.10;26.47;;;2.40;99.90;;;;;;5013718;28;20641;-79
2022/03/24 04:59:12;;;;;;;41.30;26.50;;;2.40;99.90;;;;;;5015014;28;20198;-79
2022/03/24 05:01:38;;;;;;;49.20;26.07;;;2.40;99.90;;;;;;5014734;28;20200;-79
2022/03/24 05:04:15;;;;;;;56.73;27.50;;;2.40;99.90;;;;;;5014928;28;20190;-78
2022/03/24 05:06:41;;;;;;;52.40;27.77;;;2.40;99.90;;;;;;5014864;28;20191;-78
2022/03/24 05:09:07;;;;;;;44.97;26.10;;;2.40;99.90;;;;;;5013205;28;20625;-78
2022/03/24 05:11:32;;;;;;;45.80;25.73;;;2.30;99.90;;;;;;5014742;28;20596;-78
2022/03/24 05:13:58;;;;;;;39.70;25.53;;;2.20;99.90;;;;;;4997563;28;20218;-78
2022/03/24 05:16:24;;;;;;;41.10;23.57;;;2.10;99.90;;;;;;5015490;28;20226;-78
2022/03/24 05:18:49;;;;;;;47.23;26.13;;;2.10;99.90;;;;;;4997327;28;20299;-79
2022/03/24 05:21:15;;;;;;;41.50;25.53;;;2.10;99.90;;;;;;5014581;28;20544;-80
2022/03/24 05:23:41;;;;;;;44.20;26.47;;;2.00;99.90;;;;;;5013449;28;20266;-80
2022/03/24 05:26:07;;;;;;;43.10;26.30;;;1.90;99.90;;;;;;5013856;28;20180;-80
2022/03/24 05:28:33;;;;;;;45.03;25.93;;;1.80;99.90;;;;;;5014762;28;20550;-80
2022/03/24 05:30:58;;;;;;;42.67;25.77;;;1.70;99.90;;;;;;5013127;28;20191;-80
2022/03/24 05:33:24;;;;;;;44.23;25.77;;;1.70;99.90;;;;;;5014904;28;20638;-80
2022/03/24 05:35:51;;;;;;;38.37;24.63;;;1.70;99.90;;;;;;5014398;28;20183;-80
2022/03/24 05:38:17;;;;;;;49.50;27.00;;;1.80;99.90;;;;;;5012920;28;20204;-80
2022/03/24 05:40:43;;;;;;;42.70;26.57;;;2.00;99.90;;;;;;5012981;28;20180;-79
2022/03/24 05:43:08;;;;;;;45.83;26.97;;;2.10;99.90;;;;;;5013130;28;20652;-79
2022/03/24 05:45:34;;;;;;;52.60;28.23;;;2.20;99.90;;;;;;5013116;28;20556;-79
2022/03/24 05:48:00;;;;;;;50.80;27.73;;;2.10;99.90;;;;;;5015390;28;20200;-80
2022/03/24 05:50:27;;;;;;;46.90;26.90;;;2.00;99.90;;;;;;5018008;28;20203;-80
2022/03/24 05:52:53;;;;;;;48.23;29.13;;;2.00;99.90;;;;;;5016953;28;20221;-79
2022/03/24 05:55:19;;;;;;;46.77;28.63;;;2.10;99.90;;;;;;5016542;28;20602;-79
2022/03/24 05:57:45;;;;;;;43.27;27.77;;;2.10;99.90;;;;;;5000088;28;20283;-78
2022/03/24 06:00:12;;;;;;;51.00;28.50;;;2.30;99.90;;;;;;5016667;28;20179;-78
2022/03/24 06:02:38;;;;;;;47.67;29.27;;;2.40;99.90;;;;;;5016867;28;20581;-78
2022/03/24 06:05:12;;;;;;;45.33;26.57;;;2.40;99.90;;;;;;5018453;28;20165;-78
2022/03/24 06:07:39;;;;;;;44.07;25.70;;;2.40;99.90;;;;;;5016928;28;20208;-78
2022/03/24 06:10:07;;;;;;;45.53;27.03;;;2.60;99.90;;;;;;5018507;28;20203;-78
2022/03/24 06:12:34;;;;;;;47.83;27.93;;;2.60;99.90;;;;;;5016617;28;20238;-78
2022/03/24 06:15:00;;;;;;;41.57;25.73;;;2.50;99.90;;;;;;5017789;28;20594;-78
2022/03/24 06:17:26;;;;;;;49.63;28.13;;;2.50;99.90;;;;;;5017538;28;20200;-79
2022/03/24 06:19:53;;;;;;;45.80;26.37;;;2.50;99.90;;;;;;5016372;28;20176;-78
2022/03/24 06:22:19;;;;;;;41.13;25.43;;;2.50;99.90;;;;;;5017895;28;20688;-78
2022/03/24 06:24:45;;;;;;;40.77;26.33;;;2.50;99.90;;;;;;5000951;28;20184;-78
2022/03/24 06:27:11;;;;;;;38.43;26.07;;;2.50;99.90;;;;;;5017977;28;20254;-78
2022/03/24 06:29:37;;;;;;;41.03;25.27;;;2.60;99.90;;;;;;5017736;28;20240;-78
2022/03/24 06:32:03;;;;;;;42.50;26.23;;;2.70;99.90;;;;;;5017727;28;20180;-78
2022/03/24 06:34:29;;;;;;;43.43;27.03;;;2.80;99.90;;;;;;5017497;28;20176;-76
2022/03/24 06:36:55;;;;;;;45.93;27.97;;;2.80;99.90;;;;;;5015861;28;20279;-77
2022/03/24 06:39:22;;;;;;;49.43;29.20;;;2.90;99.90;;;;;;5017311;28;20203;-78
2022/03/24 06:41:48;;;;;;;43.97;28.00;;;3.00;99.90;;;;;;5015514;28;20696;-78
2022/03/24 06:44:15;;;;;;;43.43;28.23;;;3.10;99.90;;;;;;5015771;28;20639;-76
2022/03/24 06:46:41;;;;;;;47.60;27.40;;;3.10;99.90;;;;;;5016872;28;20264;-76
2022/03/24 06:49:07;;;;;;;42.70;26.00;;;3.20;99.90;;;;;;5016975;28;20200;-76
2022/03/24 06:51:34;;;;;;;44.07;26.90;;;3.30;99.90;;;;;;5016644;28;20182;-77
2022/03/24 06:54:02;;;;;;;41.97;26.37;;;3.40;99.90;;;;;;5016813;28;20599;-76
2022/03/24 06:56:28;;;;;;;40.17;25.63;;;3.60;99.90;;;;;;5016644;28;20215;-76
2022/03/24 06:58:54;;;;;;;41.07;26.03;;;3.70;99.90;;;;;;5016026;28;20204;-76
2022/03/24 07:01:20;;;;;;;42.07;26.40;;;3.80;99.90;;;;;;5016060;28;20175;-77
2022/03/24 07:03:46;;;;;;;41.10;24.20;;;4.00;99.90;;;;;;5015562;28;20242;-77
2022/03/24 07:06:12;;;;;;;41.60;25.23;;;4.20;99.90;;;;;;5016231;28;20184;-77
2022/03/24 07:08:38;;;;;;;42.40;24.33;;;4.20;99.90;;;;;;5016377;28;20198;-77
2022/03/24 07:11:06;;;;;;;48.53;27.00;;;4.40;99.90;;;;;;4998970;28;20179;-78
2022/03/24 07:13:32;;;;;;;41.37;26.20;;;4.50;99.90;;;;;;5016725;28;20179;-78
2022/03/24 07:15:58;;;;;;;41.03;24.30;;;4.70;99.90;;;;;;5016834;28;20171;-81
2022/03/24 07:18:24;;;;;;;39.30;24.90;;;4.90;99.90;;;;;;5017768;28;20234;-81
2022/03/24 07:20:50;;;;;;;40.60;25.67;;;5.00;99.90;;;;;;5018711;28;20584;-81
2022/03/24 07:23:16;;;;;;;45.40;24.90;;;5.20;99.90;;;;;;5017097;28;20199;-81
2022/03/24 07:25:42;;;;;;;40.03;24.73;;;5.30;99.90;;;;;;5016908;28;20259;-81
2022/03/24 07:28:11;;;;;;;41.10;25.17;;;5.40;99.90;;;;;;5016021;28;20206;-81
2022/03/24 07:30:37;;;;;;;38.13;24.03;;;5.50;99.90;;;;;;5015255;28;20279;-81
2022/03/24 07:33:03;;;;;;;47.47;26.43;;;5.60;99.90;;;;;;5016539;28;20198;-81
2022/03/24 07:35:30;;;;;;;45.03;25.07;;;5.80;99.90;;;;;;5015127;28;20176;-81
2022/03/24 07:37:57;;;;;;;42.97;27.07;;;5.90;99.90;;;;;;4998774;28;20701;-81
2022/03/24 07:40:23;;;;;;;39.93;25.53;;;6.10;99.90;;;;;;5015632;28;20602;-81
2022/03/24 07:42:52;;;;;;;39.07;25.03;;;6.20;99.90;;;;;;5015562;28;20303;-81
2022/03/24 07:45:19;;;;;;;40.03;26.30;;;6.40;99.90;;;;;;5016340;28;20176;-82
2022/03/24 07:48:06;;;;;;;42.30;27.10;;;6.50;99.90;;;;;;5016490;28;20249;-82
2022/03/24 07:50:32;;;;;;;46.93;26.13;;;6.70;99.90;;;;;;5015253;28;20183;-82
2022/03/24 07:53:08;;;;;;;41.83;25.83;;;6.80;99.90;;;;;;5016937;28;20176;-81
2022/03/24 07:55:38;;;;;;;36.13;25.27;;;7.00;99.90;;;;;;5016726;28;20348;-81
2022/03/24 07:58:04;;;;;;;39.67;25.47;;;7.00;99.90;;;;;;5018640;28;20204;-82
2022/03/24 08:00:29;;;;;;;38.67;25.23;;;7.20;99.90;;;;;;5018474;28;20191;-82
2022/03/24 08:02:55;;;;;;;40.10;24.83;;;7.40;99.90;;;;;;5014909;28;20235;-82
2022/03/24 08:05:22;;;;;;;40.73;25.70;;;7.40;99.90;;;;;;5016108;28;20302;-82
2022/03/24 08:07:47;;;;;;;40.93;25.00;;;7.60;99.90;;;;;;5014695;28;20220;-82
2022/03/24 08:10:13;;;;;;;38.20;23.80;;;7.80;99.90;;;;;;5015782;28;20188;-82
2022/03/24 08:12:39;;;;;;;37.07;24.07;;;8.00;99.90;;;;;;5014694;28;20562;-82
2022/03/24 08:15:05;;;;;;;41.53;25.30;;;8.10;99.90;;;;;;5014639;28;20191;-82
2022/03/24 08:17:30;;;;;;;41.27;25.50;;;8.20;99.90;;;;;;5015887;28;20544;-82
2022/03/24 08:19:56;;;;;;;45.33;24.70;;;8.40;99.90;;;;;;5014525;28;20183;-82
2022/03/24 08:22:22;;;;;;;41.57;25.10;;;8.70;99.90;;;;;;5014522;28;20203;-82
2022/03/24 08:24:48;;;;;;;35.10;23.70;;;9.00;99.90;;;;;;5018882;28;20180;-82
2022/03/24 08:27:14;;;;;;;39.75;23.40;;;9.90;99.90;;;;;;5019161;28;20198;-82
2022/03/24 08:29:40;;;;;;;38.50;23.70;;;11.20;99.90;;;;;;5017901;28;20274;-82
2022/03/24 08:32:06;;;;;;;40.95;24.02;;;12.50;99.90;;;;;;5017679;28;20237;-83
2022/03/24 08:34:32;;;;;;;34.65;23.25;;;13.50;99.90;;;;;;5018209;28;20634;-83
2022/03/24 08:36:59;;;;;;;36.78;23.63;;;14.50;99.90;;;;;;5017137;28;20187;-83
2022/03/24 08:39:25;;;;;;;34.58;23.15;;;15.20;99.90;;;;;;5016569;28;20206;-82
2022/03/24 08:41:51;;;;;;;37.72;23.55;;;15.70;99.90;;;;;;5017735;28;20204;-82
2022/03/24 08:44:17;;;;;;;36.15;22.98;;;16.30;99.90;;;;;;5016168;28;20176;-83
2022/03/24 08:46:42;;;;;;;35.92;23.25;;;16.60;99.90;;;;;;5016132;28;20176;-83
2022/03/24 08:49:08;;;;;;;40.00;24.40;;;16.80;99.90;;;;;;5017270;28;20196;-84
2022/03/24 08:51:34;;;;;;;33.47;23.15;;;17.30;99.90;;;;;;5000484;28;20218;-83
2022/03/24 08:54:00;;;;;;;36.00;24.02;;;17.30;99.90;;;;;;5016010;28;20651;-83
2022/03/24 08:56:25;;;;;;;38.20;24.45;;;17.40;99.90;;;;;;5015743;28;20553;-83
2022/03/24 08:58:51;;;;;;;38.10;25.23;;;17.60;99.90;;;;;;5015823;28;20223;-83
2022/03/24 09:01:19;;;;;;;35.13;25.83;;;17.60;99.90;;;;;;5015254;28;20175;-83
2022/03/24 09:03:47;;;;;;;35.67;24.83;;;18.10;99.90;;;;;;5016780;28;20172;-83
2022/03/24 09:06:13;;;;;;;39.25;25.95;;;18.60;99.90;;;;;;5016341;28;20573;-83
2022/03/24 09:08:39;;;;;;;36.25;25.10;;;18.80;99.90;;;;;;5015116;28;20195;-83
2022/03/24 09:11:05;;;;;;;35.53;25.55;;;18.60;99.90;;;;;;5016899;28;20553;-83
2022/03/24 09:13:31;;;;;;;36.03;26.50;;;18.60;99.90;;;;;;5016383;28;20168;-83
2022/03/24 09:15:57;;;;;;;38.17;25.83;;;18.40;99.90;;;;;;5016466;28;20182;-83
2022/03/24 09:18:22;;;;;;;41.75;26.60;;;18.40;99.90;;;;;;5016213;28;20196;-83
2022/03/24 09:20:48;;;;;;;41.28;27.15;;;18.00;99.90;;;;;;5015121;28;20180;-83
2022/03/24 09:23:14;;;;;;;45.15;29.02;;;17.70;99.90;;;;;;5013762;28;20207;-83
2022/03/24 09:25:40;;;;;;;38.25;28.15;;;17.40;99.90;;;;;;5014462;28;20179;-83
2022/03/24 09:28:06;;;;;;;39.10;27.73;;;17.10;99.90;;;;;;5015694;28;20247;-83
2022/03/24 09:30:32;;;;;;;47.78;29.88;;;17.00;99.90;;;;;;5014789;28;20187;-83
2022/03/24 09:32:58;;;;;;;40.80;28.88;;;16.80;99.90;;;;;;5015225;28;20203;-83
2022/03/24 09:35:24;;;;;;;43.20;29.80;;;16.40;99.90;;;;;;5014893;28;20242;-83
2022/03/24 09:37:50;;;;;;;45.90;31.02;;;16.00;99.90;;;;;;5013594;28;20207;-83
2022/03/24 09:40:15;;;;;;;44.58;31.67;;;15.70;99.90;;;;;;5014388;28;20174;-83
2022/03/24 09:42:42;;;;;;;44.88;29.50;;;15.50;99.90;;;;;;5013061;28;20294;-83
2022/03/24 09:45:11;;;;;;;43.85;30.15;;;15.60;99.90;;;;;;5013340;28;20226;-81
2022/03/24 09:47:37;;;;;;;46.25;31.33;;;15.40;99.90;;;;;;5013004;28;20704;-83
2022/03/24 09:50:04;;;;;;;43.60;28.60;;;15.30;99.90;;;;;;5013571;28;20176;-83
2022/03/24 09:52:29;;;;;;;43.72;30.17;;;15.20;99.90;;;;;;5014176;28;20183;-82
2022/03/24 09:54:56;;;;;;;49.40;30.45;;;15.30;99.90;;;;;;5013854;28;20179;-82
2022/03/24 09:57:22;;;;;;;51.35;31.55;;;15.30;99.90;;;;;;5013747;28;20208;-82
2022/03/24 09:59:48;;;;;;;43.17;30.25;;;15.40;99.90;;;;;;5014040;28;20180;-82
2022/03/24 10:02:17;;;;;;;52.80;32.63;;;15.40;99.90;;;;;;5015576;28;20202;-82
2022/03/24 10:05:01;;;;;;;43.13;29.73;;;15.50;99.90;;;;;;5014745;28;20163;-82
2022/03/24 10:07:31;;;;;;;47.60;30.58;;;15.60;99.90;;;;;;5014138;28;20238;-81
2022/03/24 10:09:58;;;;;;;47.03;30.27;;;15.60;99.90;;;;;;5018646;28;20152;-81
2022/03/24 10:12:37;;;;;;;45.50;30.90;;;15.80;99.90;;;;;;5018185;28;20210;-81
2022/03/24 10:15:08;;;;;;;48.88;30.85;;;15.80;99.90;;;;;;5018616;28;20231;-81
2022/03/24 10:17:36;;;;;;;46.85;31.95;;;15.80;99.90;;;;;;5013142;28;20623;-81
2022/03/24 10:20:15;;;;;;;45.83;30.73;;;15.80;99.90;;;;;;5012973;28;20188;-81
2022/03/24 10:22:56;;;;;;;49.45;31.60;;;16.00;99.90;;;;;;5014186;28;20198;-81
2022/03/24 10:25:25;;;;;;;44.00;30.92;;;16.00;99.90;;;;;;5015867;28;20160;-81
2022/03/24 10:28:05;;;;;;;50.60;32.08;;;16.10;99.90;;;;;;5015529;28;20255;-81
2022/03/24 10:30:51;;;;;;;60.67;34.47;;;16.20;99.90;;;;;;5016215;28;20175;-81
2022/03/24 10:33:47;;;;;;;55.03;33.88;;;16.40;99.90;;;;;;5015237;28;20186;-80
2022/03/24 10:36:15;;;;;;;51.67;31.98;;;16.60;99.90;;;;;;5018004;28;20172;-80
2022/03/24 10:38:52;;;;;;;50.10;33.50;;;16.50;99.90;;;;;;5017371;28;20203;-80
2022/03/24 10:41:25;;;;;;;52.38;31.90;;;16.60;99.90;;;;;;5018624;28;20249;-80
2022/03/24 10:43:54;;;;;;;50.00;32.10;;;16.60;99.90;;;;;;5019491;28;20172;-80
2022/03/24 10:46:23;;;;;;;51.72;32.90;;;16.80;99.90;;;;;;5018168;28;20202;-80
2022/03/24 10:48:50;;;;;;;46.08;31.65;;;17.00;99.90;;;;;;5020574;28;20245;-80
2022/03/24 10:51:27;;;;;;;50.72;30.75;;;17.20;99.90;;;;;;5021253;28;20174;-81
2022/03/24 10:54:16;;;;;;;51.85;33.20;;;17.20;99.90;;;;;;5019025;28;20179;-80
2022/03/24 10:56:58;;;;;;;47.40;31.20;;;17.20;99.90;;;;;;5003237;28;20244;-81
2022/03/24 10:59:27;;;;;;;47.30;28.60;;;17.40;99.90;;;;;;5001451;28;20182;-81
2022/03/24 11:01:54;;;;;;;47.80;31.67;;;17.50;99.90;;;;;;5017374;28;20207;-81
2022/03/24 11:04:20;;;;;;;46.78;31.40;;;17.60;99.90;;;;;;5017464;28;20549;-83
2022/03/24 11:06:49;;;;;;;46.75;30.08;;;17.80;99.90;;;;;;5017231;28;20273;-83
2022/03/24 11:09:23;;;;;;;47.60;29.25;;;17.90;99.90;;;;;;5019928;28;20207;-82
2022/03/24 11:12:28;;;;;;;43.05;31.08;;;18.20;99.90;;;;;;5024329;28;20180;-82
2022/03/24 11:15:00;;;;;;;45.00;29.27;;;18.20;99.90;;;;;;5017775;28;20262;-82
2022/03/24 11:17:27;;;;;;;45.65;29.45;;;18.10;99.90;;;;;;5017253;28;20207;-82
2022/03/24 11:20:15;;;;;;;48.53;30.45;;;18.40;99.90;;;;;;5016899;28;20176;-81
2022/03/24 11:22:48;;;;;;;41.50;27.42;;;18.20;99.90;;;;;;5002248;28;20196;-78
2022/03/24 11:25:15;;;;;;;40.60;26.92;;;18.10;99.90;;;;;;5020224;28;20194;-78
2022/03/24 11:27:41;;;;;;;33.85;23.98;;;18.50;99.90;;;;;;5017176;28;20196;-79
2022/03/24 11:30:09;;;;;;;39.75;26.80;;;18.80;99.90;;;;;;5017284;28;20160;-78
2022/03/24 11:32:41;;;;;;;35.72;24.40;;;19.10;99.90;;;;;;5015398;28;20211;-78
2022/03/24 11:35:08;;;;;;;38.25;25.20;;;19.50;99.90;;;;;;5015492;28;20199;-78
2022/03/24 11:37:35;;;;;;;33.97;22.35;;;19.80;99.90;;;;;;5016576;28;20218;-79
2022/03/24 11:40:09;;;;;;;35.28;24.67;;;20.00;99.90;;;;;;5016409;28;20179;-78
2022/03/24 11:42:49;;;;;;;35.65;24.23;;;20.20;99.90;;;;;;4998930;28;20211;-78
2022/03/24 11:45:19;;;;;;;35.05;25.10;;;20.10;99.90;;;;;;4998144;28;20172;-78
2022/03/24 11:47:59;;;;;;;33.17;23.95;;;20.20;99.90;;;;;;5016655;28;20731;-79
2022/03/24 11:50:36;;;;;;;30.52;22.58;;;20.40;99.90;;;;;;5017152;28;20533;-78
2022/03/24 11:53:16;;;;;;;30.15;22.65;;;20.70;99.90;;;;;;5015454;28;20199;-78
2022/03/24 11:56:03;;;;;;;35.97;25.10;;;20.80;99.90;;;;;;5015602;28;20208;-78
2022/03/24 11:58:38;;;;;;;33.50;23.88;;;21.10;99.90;;;;;;5016664;28;20283;-79
2022/03/24 12:01:19;;;;;;;32.50;25.15;;;20.80;99.90;;;;;;5016788;28;20155;-79
2022/03/24 12:03:49;;;;;;;33.70;23.95;;;20.90;99.90;;;;;;5017188;28;20541;-78
2022/03/24 12:06:16;;;;;;;33.13;25.33;;;21.20;99.90;;;;;;5016377;28;20191;-78
2022/03/24 12:08:46;;;;;;;33.45;24.10;;;21.40;99.90;;;;;;5014956;28;20195;-79
2022/03/24 12:11:30;;;;;;;32.05;24.38;;;21.40;99.90;;;;;;5016879;28;20263;-79
2022/03/24 12:14:01;;;;;;;33.58;24.42;;;21.30;99.90;;;;;;4999762;28;20182;-78
2022/03/24 12:16:28;;;;;;;35.35;25.15;;;21.60;99.90;;;;;;5016614;28;20164;-78
2022/03/24 12:18:55;;;;;;;37.65;26.38;;;21.70;99.90;;;;;;5016752;28;20246;-79
2022/03/24 12:21:24;;;;;;;38.55;26.23;;;22.00;99.90;;;;;;5017205;28;20168;-79
2022/03/24 12:24:06;;;;;;;32.65;24.58;;;21.90;99.90;;;;;;5015651;28;20769;-79
2022/03/24 12:26:47;;;;;;;36.00;25.20;;;22.10;99.10;;;;;;5016896;28;20195;-79
2022/03/24 12:29:12;;;;;;;35.58;24.55;;;22.30;99.90;;;;;;5016259;28;20192;-79
2022/03/24 12:32:09;;;;;;;36.97;26.48;;;22.60;99.90;;;;;;5017519;28;20230;-79
2022/03/24 12:34:44;;;;;;;34.55;25.88;;;22.30;99.10;;;;;;5020169;28;20169;-79
2022/03/24 12:37:22;;;;;;;43.63;27.98;;;22.30;99.90;;;;;;5016793;28;20171;-79
2022/03/24 12:39:49;;;;;;;37.38;26.08;;;22.30;99.90;;;;;;5016136;28;20567;-79
2022/03/24 12:42:16;;;;;;;36.20;27.67;;;22.30;99.30;;;;;;5014433;28;20582;-78
2022/03/24 12:45:03;;;;;;;35.15;25.80;;;22.60;98.40;;;;;;5015867;28;20176;-79